»·PEaware :: PSV130 KBUR-KLAS

PSV130 :: KBUR-KLAS

FLIGHT INFORMATION

Flight Status: Arrived
Operator:
Power Set Virtual (website)
More flights by this operator :: More flights under this callsign
Pilot: David J. (24489)
Aircraft: BOEING 737-800
(B738)
More flights by this aircraft type
Origin: KBUR Bob Hope-Burbank
United States
Destination: KLAS McCarran Intl
United States
More flights between these airports :: More routes between these airports
Route: SLAPP1 MISEN KEPEC6
File this flight plan on PilotEdge
Remarks: RMK / SIMBRIEF
Altitude:
(Current/Filed)
27,000ft
Speed:
(Current/Filed)
479kts
Departed: 01-Aug-20 09:59 PM
Arrived: 01-Aug-20 10:46 PM
Distance/Time
Traveled:
194nm/0:47
Distance/Time
To Go:
Arrived

Flight Plot

Page will automatically refresh every two minutes.


Map Options




Map Legend


Flown Route
Filed Route
Departure Airport
Arrival Airport
Navaid (VOR, NDB)
Fix

Horizontal Profiles

Position Reports

Time Latitude Longitude Heading Altitude Ground
Speed
01-Aug-20 21:46 34.196809 -118.350593 181 729ft 0kts
01-Aug-20 21:47 34.196809 -118.350593 181 729ft 0kts
01-Aug-20 21:48 34.196809 -118.350593 181 729ft 0kts
01-Aug-20 21:49 34.196809 -118.350593 181 729ft 0kts
01-Aug-20 21:50 34.196809 -118.350593 181 729ft 0kts
01-Aug-20 21:51 34.196842 -118.350593 182 729ft 1kts
01-Aug-20 21:52 34.197133 -118.350295 269 729ft 0kts
01-Aug-20 21:53 34.197133 -118.350295 269 729ft 0kts
01-Aug-20 21:54 34.197123 -118.351260 271 729ft 19kts
01-Aug-20 21:55 34.200575 -118.355860 351 729ft 20kts
01-Aug-20 21:56 34.205785 -118.357312 347 729ft 27kts
01-Aug-20 21:57 34.211455 -118.358941 313 729ft 0kts
01-Aug-20 21:58 34.210990 -118.360091 169 729ft 12kts
01-Aug-20 21:59 34.172297 -118.360219 213 2566ft 214kts
01-Aug-20 22:00 34.122960 -118.418187 241 4046ft 280kts
01-Aug-20 22:01 34.151586 -118.490320 346 7903ft 283kts
01-Aug-20 22:02 34.234157 -118.494210 12 11145ft 320kts
01-Aug-20 22:02 34.306637 -118.446215 28 12501ft 386kts
01-Aug-20 22:04 34.416153 -118.366564 29 14928ft 394kts
01-Aug-20 22:04 34.492810 -118.304241 38 17295ft 405kts
01-Aug-20 22:05 34.581051 -118.214695 38 19049ft 418kts
01-Aug-20 22:07 34.670278 -118.094372 70 19086ft 419kts
01-Aug-20 22:07 34.690324 -117.979147 79 19079ft 419kts
01-Aug-20 22:08 34.699978 -117.835531 85 20971ft 433kts
01-Aug-20 22:09 34.707638 -117.686793 87 22847ft 448kts
01-Aug-20 22:10 34.714142 -117.533520 83 23976ft 458kts
01-Aug-20 22:11 34.746936 -117.383169 70 25560ft 467kts
01-Aug-20 22:12 34.787130 -117.232574 71 27044ft 466kts
01-Aug-20 22:13 34.827857 -117.078815 70 27072ft 484kts
01-Aug-20 22:14 34.869074 -116.923074 71 26215ft 484kts
01-Aug-20 22:15 34.909824 -116.767796 68 25637ft 479kts
01-Aug-20 22:16 34.975758 -116.628194 53 25086ft 473kts
01-Aug-20 22:17 35.049674 -116.497793 54 24088ft 464kts
01-Aug-20 22:18 35.126962 -116.372303 45 24002ft 457kts
01-Aug-20 22:19 35.210202 -116.268424 44 23996ft 394kts
01-Aug-20 22:20 35.282330 -116.177746 44 24003ft 370kts
01-Aug-20 22:21 35.354196 -116.087277 44 22646ft 365kts
01-Aug-20 22:22 35.423758 -115.999854 44 20561ft 351kts
01-Aug-20 22:23 35.491402 -115.914665 44 18455ft 343kts
01-Aug-20 22:24 35.556886 -115.831429 44 16373ft 336kts
01-Aug-20 22:25 35.621418 -115.749081 45 14317ft 331kts
01-Aug-20 22:26 35.684462 -115.668542 45 13122ft 325kts
01-Aug-20 22:27 35.749060 -115.589026 32 13030ft 329kts
01-Aug-20 22:28 35.837037 -115.570262 358 13043ft 323kts
01-Aug-20 22:29 35.926323 -115.566058 0 13044ft 323kts
01-Aug-20 22:30 35.997621 -115.509057 73 12416ft 332kts
01-Aug-20 22:31 36.021272 -115.404829 68 11345ft 303kts
01-Aug-20 22:32 36.026368 -115.304515 98 10212ft 294kts
01-Aug-20 22:33 36.018715 -115.204763 97 9093ft 287kts
01-Aug-20 22:34 36.012052 -115.106666 97 8350ft 270kts
01-Aug-20 22:35 36.007315 -115.016273 95 7409ft 261kts
01-Aug-20 22:36 36.003382 -114.927014 95 6312ft 259kts
01-Aug-20 22:37 36.000826 -114.838118 80 5995ft 261kts
01-Aug-20 22:38 36.056571 -114.804857 343 6042ft 245kts
01-Aug-20 22:39 36.105051 -114.848831 265 6019ft 222kts
01-Aug-20 22:40 36.085102 -114.922249 244 5219ft 233kts
01-Aug-20 22:41 36.070314 -114.993584 269 4132ft 199kts
01-Aug-20 22:42 36.073980 -115.053936 266 3318ft 152kts
01-Aug-20 22:43 36.073641 -115.102049 268 2569ft 136kts
01-Aug-20 22:44 36.073603 -115.143585 268 2189ft 62kts
01-Aug-20 22:45 36.074706 -115.150573 301 2189ft 0kts
01-Aug-20 22:46 36.074760 -115.150682 301 2189ft 4kts
01-Aug-20 22:47 36.077441 -115.152582 333 2189ft 0kts
01-Aug-20 22:48 36.078766 -115.151925 92 2189ft 9kts
01-Aug-20 22:49 36.078608 -115.147537 48 2189ft 15kts
01-Aug-20 22:50 36.082258 -115.149224 331 2189ft 9kts
01-Aug-20 22:51 36.082997 -115.149102 63 2189ft 0kts
01-Aug-20 22:52 36.082997 -115.149102 63 2189ft 0kts
01-Aug-20 22:53 36.082997 -115.149102 63 2189ft 0kts
01-Aug-20 22:54 36.082997 -115.149102 63 2189ft 0kts
01-Aug-20 22:55 36.082997 -115.149102 63 2189ft 0kts
01-Aug-20 22:56 36.082997 -115.149102 63 2189ft 0kts
01-Aug-20 22:57 36.082997 -115.149102 63 2189ft 0kts
01-Aug-20 22:58 36.082997 -115.149102 63 2189ft 0kts
01-Aug-20 22:59 36.082997 -115.149102 63 2189ft 0kts

Navigation Log

Ident Type
Flight plan parsing failed, navigation log unavailable